Time;durP1;ratioP1;P1;durP2;ratioP2;P2;SDS_P1;SDS_P2;PMS_P1;PMS_P2;Temp;Humidity;BMP_temperature;BMP_pressure;BME280_temperature;BME280_humidity;BME280_pressure;Samples;Min_cycle;Max_cycle;Signal;HPM_P1;HPM_P2
2023/08/23 00:01:12;;;;;;;;;;;22.60;74.30;;;21.85;63.01;100173.69;10368461;28;1910;-73
2023/08/23 00:06:07;;;;;;;;;;;22.50;74.20;;;21.84;63.14;100171.97;10368381;28;798;-73
2023/08/23 00:11:03;;;;;;;;;;;22.60;74.30;;;21.85;62.96;100170.16;10368938;28;863;-73
2023/08/23 00:15:58;;;;;;;;;;;22.50;74.20;;;21.84;63.13;100173.75;10368628;28;872;-73
2023/08/23 00:20:53;;;;;;;;;;;22.50;74.20;;;21.83;63.22;100166.75;10368353;28;1972;-73
2023/08/23 00:25:49;;;;;;;;;;;22.60;74.20;;;21.83;63.11;100174.72;10367722;28;830;-73
2023/08/23 00:30:44;;;;;;;;;;;22.50;74.20;;;21.81;63.14;100172.13;10367118;28;1298;-73
2023/08/23 00:35:39;;;;;;;;;;;22.50;74.10;;;21.82;63.12;100175.63;10366709;28;1289;-73
2023/08/23 00:40:35;;;;;;;;;;;22.50;74.10;;;21.81;63.10;100180.09;10367807;28;1923;-73
2023/08/23 00:45:30;;;;;;;;;;;22.50;74.20;;;21.80;62.93;100175.72;10367004;28;791;-73
2023/08/23 00:50:26;;;;;;;;;;;22.50;74.10;;;21.80;63.09;100175.72;10366251;28;1001;-73
2023/08/23 00:55:21;;;;;;;;;;;22.50;74.10;;;21.80;62.99;100177.53;10366710;28;914;-73
2023/08/23 01:00:16;;;;;;;;;;;22.50;74.10;;;21.79;63.00;100174.00;10366507;28;2027;-73
2023/08/23 01:05:12;;;;;;;;;;;22.50;74.10;;;21.78;62.89;100169.66;10365711;28;1184;-73
2023/08/23 01:10:07;;;;;;;;;;;22.50;74.10;;;21.78;63.08;100168.78;10366999;28;866;-73
2023/08/23 01:15:03;;;;;;;;;;;22.50;74.10;;;21.77;62.95;100157.31;10367487;28;929;-73
2023/08/23 01:19:58;;;;;;;;;;;22.50;74.10;;;21.78;63.14;100166.13;10365588;28;1913;-74
2023/08/23 01:24:53;;;;;;;;;;;22.50;74.10;;;21.77;62.93;100157.31;10366415;28;948;-73
2023/08/23 01:29:49;;;;;;;;;;;22.50;74.10;;;21.76;63.16;100152.94;10366166;28;1305;-73
2023/08/23 01:34:44;;;;;;;;;;;22.50;74.10;;;21.76;63.06;100149.44;10365832;28;850;-73
2023/08/23 01:39:40;;;;;;;;;;;22.50;74.10;;;21.74;63.02;100149.50;10366366;28;1969;-73
2023/08/23 01:44:35;;;;;;;;;;;22.50;74.10;;;21.74;63.07;100149.50;10366335;28;851;-73
2023/08/23 01:49:30;;;;;;;;;;;22.50;74.10;;;21.74;62.98;100149.50;10365015;28;958;-73
2023/08/23 01:54:26;;;;;;;;;;;22.50;74.00;;;21.72;62.95;100140.78;10365543;28;995;-73
2023/08/23 01:59:21;;;;;;;;;;;22.50;74.10;;;21.74;62.98;100151.31;10364802;28;1989;-73
2023/08/23 02:04:17;;;;;;;;;;;22.50;74.10;;;21.71;62.92;100141.72;10365951;28;859;-74
2023/08/23 02:09:12;;;;;;;;;;;22.40;73.90;;;21.71;62.92;100131.09;10365878;28;876;-73
2023/08/23 02:14:07;;;;;;;;;;;22.40;73.90;;;21.71;63.05;100131.09;10366663;28;948;-73
2023/08/23 02:19:03;;;;;;;;;;;22.40;73.80;;;21.70;63.15;100128.56;10372727;28;1969;-73
2023/08/23 02:23:58;;;;;;;;;;;22.40;73.90;;;21.69;62.84;100130.31;10371787;28;932;-73
2023/08/23 02:28:54;;;;;;;;;;;22.40;73.90;;;21.70;62.79;100131.19;10372722;28;1300;-73
2023/08/23 02:33:49;;;;;;;;;;;22.40;73.90;;;21.68;62.89;100136.56;10372664;28;793;-73
2023/08/23 02:38:44;;;;;;;;;;;22.40;73.80;;;21.67;62.89;100125.13;10372424;28;1918;-73
2023/08/23 02:43:40;;;;;;;;;;;22.40;73.80;;;21.67;63.09;100130.41;10371687;28;885;-73
2023/08/23 02:48:35;;;;;;;;;;;22.40;73.80;;;21.66;62.88;100122.53;10371483;28;953;-73
2023/08/23 02:53:31;;;;;;;;;;;22.40;73.90;;;21.65;62.87;100116.38;10371966;28;858;-73
2023/08/23 02:58:26;;;;;;;;;;;22.40;73.80;;;21.65;63.02;100120.81;10371319;28;1902;-73
2023/08/23 03:03:21;;;;;;;;;;;22.40;73.80;;;21.64;62.84;100127.94;10370984;28;857;-73
2023/08/23 03:08:17;;;;;;;;;;;22.40;73.90;;;21.63;63.00;100122.69;10371036;28;826;-73
2023/08/23 03:13:12;;;;;;;;;;;22.40;73.80;;;21.62;62.86;100127.16;10371206;28;982;-73
2023/08/23 03:18:07;;;;;;;;;;;22.40;73.80;;;21.62;62.84;100121.00;10371153;28;1902;-73
2023/08/23 03:23:03;;;;;;;;;;;22.40;73.90;;;21.60;62.86;100115.75;10370462;28;787;-73
2023/08/23 03:27:58;;;;;;;;;;;22.40;73.80;;;21.60;62.74;100110.47;10369060;28;997;-73
2023/08/23 03:32:54;;;;;;;;;;;22.30;73.70;;;21.59;62.95;100110.56;10369883;28;846;-73
2023/08/23 03:37:49;;;;;;;;;;;22.30;73.70;;;21.58;62.86;100107.03;10369476;28;1968;-73
2023/08/23 03:42:44;;;;;;;;;;;22.30;73.70;;;21.58;62.75;100104.38;10368751;28;906;-73
2023/08/23 03:47:40;;;;;;;;;;;22.30;73.70;;;21.58;62.79;100092.91;10369154;28;860;-73
2023/08/23 03:52:35;;;;;;;;;;;22.30;73.70;;;21.56;62.81;100094.78;10350841;28;858;-73
2023/08/23 03:57:31;;;;;;;;;;;22.30;73.70;;;21.55;62.83;100093.94;10368643;28;1910;-73
2023/08/23 04:02:26;;;;;;;;;;;22.30;73.70;;;21.55;62.86;100096.56;10369172;28;877;-73
2023/08/23 04:07:22;;;;;;;;;;;22.30;73.80;;;21.55;62.77;100109.00;10368426;28;890;-73
2023/08/23 04:12:17;;;;;;;;;;;22.20;73.70;;;21.53;63.00;100103.75;10368850;28;881;-73
2023/08/23 04:17:12;;;;;;;;;;;22.30;73.70;;;21.53;62.79;100101.09;10367999;28;1965;-73
2023/08/23 04:22:08;;;;;;;;;;;22.30;73.80;;;21.52;62.97;100104.72;10368484;28;901;-73
2023/08/23 04:27:03;;;;;;;;;;;22.20;73.80;;;21.51;62.83;100095.03;10368862;28;874;-72
2023/08/23 04:31:59;;;;;;;;;;;22.20;73.80;;;21.51;63.03;100099.47;10368358;28;1160;-73
2023/08/23 04:36:54;;;;;;;;;;;22.20;73.80;;;21.51;62.69;100097.69;10367702;28;1973;-73
2023/08/23 04:41:50;;;;;;;;;;;22.20;73.70;;;21.50;62.97;100103.06;10366599;28;819;-72
2023/08/23 04:46:45;;;;;;;;;;;22.20;73.70;;;21.48;63.08;100102.28;10366833;28;858;-73
2023/08/23 04:51:43;;;;;;;;;;;22.20;73.70;;;21.48;62.80;100116.41;10366446;28;917;-73
2023/08/23 04:56:38;;;;;;;;;;;22.20;73.70;;;21.46;62.78;100110.34;10366574;28;1906;-72
2023/08/23 05:01:34;;;;;;;;;;;22.20;73.70;;;21.47;62.91;100119.16;10366678;28;863;-74
2023/08/23 05:06:29;;;;;;;;;;;22.20;73.70;;;21.46;62.92;100126.25;10366778;28;810;-73
2023/08/23 05:11:24;;;;;;;;;;;22.10;73.50;;;21.44;62.86;100128.13;10367052;28;858;-73
2023/08/23 05:16:20;;;;;;;;;;;22.20;73.70;;;21.43;63.06;100135.22;10366422;28;754;-73
2023/08/23 05:21:15;;;;;;;;;;;22.10;73.70;;;21.42;62.81;100140.59;10366268;28;1902;-73
2023/08/23 05:26:11;;;;;;;;;;;22.10;73.80;;;21.42;62.90;100143.25;10366266;28;771;-73
2023/08/23 05:31:06;;;;;;;;;;;22.10;73.80;;;21.40;63.08;100135.38;10366087;28;1229;-73
2023/08/23 05:36:01;;;;;;;;;;;22.10;73.80;;;21.40;63.09;100130.06;10365907;28;892;-73
2023/08/23 05:40:57;;;;;;;;;;;22.10;73.70;;;21.40;63.11;100129.22;10365694;28;1976;-73
2023/08/23 05:45:54;;;;;;;;;;;22.10;73.80;;;21.38;63.03;100124.00;10366470;28;858;-73
2023/08/23 05:50:50;;;;;;;;;;;22.10;73.80;;;21.39;63.03;100130.16;10369361;28;988;-73
2023/08/23 05:55:45;;;;;;;;;;;22.10;73.80;;;21.38;62.80;100139.06;10373597;28;811;-73
2023/08/23 06:00:41;;;;;;;;;;;22.10;73.80;;;21.37;63.12;100142.59;10373371;28;1906;-72
2023/08/23 06:05:36;;;;;;;;;;;22.10;73.80;;;21.36;63.03;100136.44;10373119;28;862;-72
2023/08/23 06:10:32;;;;;;;;;;;22.10;73.80;;;21.35;63.11;100126.78;10374269;28;846;-73
2023/08/23 06:15:27;;;;;;;;;;;22.00;73.70;;;21.35;63.05;100120.59;10372763;28;941;-72
2023/08/23 06:20:22;;;;;;;;;;;22.00;73.70;;;21.35;63.02;100137.41;10372574;28;1902;-72
2023/08/23 06:25:18;;;;;;;;;;;22.00;73.80;;;21.33;62.99;100131.31;10372456;28;815;-73
2023/08/23 06:30:16;;;;;;;;;;;22.00;73.80;;;21.33;63.01;100130.47;10372370;28;1105;-72
2023/08/23 06:35:12;;;;;;;;;;;22.00;73.80;;;21.33;63.04;100141.06;10372631;28;916;-75
2023/08/23 06:40:08;;;;;;;;;;;22.00;73.90;;;21.32;63.09;100139.31;10372434;28;1968;-76
2023/08/23 06:45:03;;;;;;;;;;;22.00;73.90;;;21.31;63.18;100146.44;10371974;28;877;-76
2023/08/23 06:49:59;;;;;;;;;;;22.00;73.90;;;21.29;63.12;100135.03;10371130;28;918;-75
2023/08/23 06:54:54;;;;;;;;;;;22.00;74.00;;;21.28;63.18;100130.69;10370912;28;922;-71
2023/08/23 06:59:50;;;;;;;;;;;21.90;73.90;;;21.24;63.11;100135.28;10370201;28;1965;-71
2023/08/23 07:04:45;;;;;;;;;;;21.90;74.00;;;21.22;63.16;100142.47;10371572;28;862;-72
2023/08/23 07:09:40;;;;;;;;;;;21.90;74.00;;;21.21;63.08;100143.38;10370641;28;951;-71
2023/08/23 07:14:36;;;;;;;;;;;21.90;74.00;;;21.22;63.23;100145.13;10371175;28;814;-70
2023/08/23 07:19:31;;;;;;;;;;;21.90;74.00;;;21.23;63.35;100145.97;10370348;28;1901;-71
2023/08/23 07:24:27;;;;;;;;;;;21.90;74.00;;;21.23;63.10;100157.44;10370770;28;834;-73
2023/08/23 07:29:22;;;;;;;;;;;21.90;74.10;;;21.24;63.18;100159.13;10370203;28;1355;-71
2023/08/23 07:34:18;;;;;;;;;;;21.90;74.20;;;21.22;63.15;100166.34;10367446;28;1109;-72
2023/08/23 07:39:14;;;;;;;;;;;21.90;74.10;;;21.23;63.24;100177.78;10368777;28;1902;-72
2023/08/23 07:44:09;;;;;;;;;;;21.90;74.20;;;21.22;63.12;100184.00;10368951;28;856;-72
2023/08/23 07:49:05;;;;;;;;;;;21.80;74.10;;;21.21;63.19;100177.84;10369095;28;917;-72
2023/08/23 07:54:00;;;;;;;;;;;21.80;74.20;;;21.20;63.10;100186.75;10369212;28;870;-72
2023/08/23 07:58:55;;;;;;;;;;;21.80;74.20;;;21.23;63.15;100191.91;10369015;28;1975;-72
2023/08/23 08:03:51;;;;;;;;;;;21.80;74.30;;;21.27;62.93;100207.66;10369187;28;838;-72
2023/08/23 08:08:46;;;;;;;;;;;21.80;74.20;;;21.28;63.11;100198.78;10368262;28;807;-70
2023/08/23 08:13:42;;;;;;;;;;;21.80;74.30;;;21.26;63.13;100203.28;10368164;28;914;-71
2023/08/23 08:18:37;;;;;;;;;;;21.80;74.30;;;21.25;62.94;100197.13;10368663;28;1910;-71
2023/08/23 08:23:33;;;;;;;;;;;21.80;74.40;;;21.26;63.09;100192.69;10367861;28;775;-70
2023/08/23 08:28:28;;;;;;;;;;;21.80;74.40;;;21.27;62.93;100197.03;10368200;28;1267;-70
2023/08/23 08:33:23;;;;;;;;;;;21.80;74.60;;;21.27;63.08;100197.03;10367569;28;846;-70
2023/08/23 08:38:21;;;;;;;;;;;21.80;74.70;;;21.28;63.02;100201.44;10367253;28;1906;-69
2023/08/23 08:43:17;;;;;;;;;;;21.80;74.80;;;21.28;63.07;100202.28;10367781;28;895;-70
2023/08/23 08:48:13;;;;;;;;;;;21.80;74.90;;;21.26;62.96;100205.94;10366406;28;995;-70
2023/08/23 08:53:08;;;;;;;;;;;21.80;75.00;;;21.26;63.28;100206.78;10366909;28;882;-71
2023/08/23 08:58:03;;;;;;;;;;;21.80;75.00;;;21.26;63.16;100205.94;10366679;28;1973;-71
2023/08/23 09:02:59;;;;;;;;;;;21.80;75.00;;;21.25;63.22;100213.03;10367360;28;831;-71
2023/08/23 09:07:54;;;;;;;;;;;21.80;75.10;;;21.26;63.22;100209.44;10366525;28;949;-70
2023/08/23 09:12:50;;;;;;;;;;;21.80;75.10;;;21.25;63.07;100207.75;10367012;28;972;-71
2023/08/23 09:17:45;;;;;;;;;;;21.80;75.20;;;21.24;63.27;100209.50;10366871;28;1984;-71
2023/08/23 09:22:40;;;;;;;;;;;21.80;75.20;;;21.24;63.18;100201.56;10367280;28;842;-71
2023/08/23 09:27:36;;;;;;;;;;;21.80;75.20;;;21.25;63.14;100199.78;10375354;28;1116;-71
2023/08/23 09:32:31;;;;;;;;;;;21.80;75.30;;;21.25;63.22;100194.47;10375529;28;1295;-71
2023/08/23 09:37:27;;;;;;;;;;;21.80;75.30;;;21.25;63.46;100191.84;10374336;28;1967;-71
2023/08/23 09:42:22;;;;;;;;;;;21.80;75.40;;;21.24;63.35;100182.16;10374143;28;830;-71
2023/08/23 09:47:17;;;;;;;;;;;21.80;75.30;;;21.24;63.30;100185.66;10374569;28;823;-71
2023/08/23 09:52:13;;;;;;;;;;;21.80;75.20;;;21.24;63.25;100175.03;10374428;28;940;-71
2023/08/23 09:57:08;;;;;;;;;;;21.70;75.10;;;21.24;63.43;100179.50;10373793;28;1963;-69
2023/08/23 10:02:03;;;;;;;;;;;21.70;75.20;;;21.22;63.38;100170.75;10374656;28;894;-69
2023/08/23 10:06:59;;;;;;;;;;;21.70;75.30;;;21.24;63.42;100163.59;10373866;28;902;-69
2023/08/23 10:11:54;;;;;;;;;;;21.70;75.20;;;21.24;63.39;100168.88;10372938;28;913;-69
2023/08/23 10:16:50;;;;;;;;;;;21.70;75.30;;;21.24;63.21;100167.09;10372200;28;1968;-70
2023/08/23 10:21:45;;;;;;;;;;;21.70;75.20;;;21.26;63.22;100156.41;10372702;28;880;-70
2023/08/23 10:26:40;;;;;;;;;;;21.70;75.10;;;21.25;63.44;100157.38;10372481;28;830;-70
2023/08/23 10:31:36;;;;;;;;;;;21.70;75.20;;;21.26;63.46;100158.22;10372275;28;1513;-70
2023/08/23 10:36:31;;;;;;;;;;;21.70;75.40;;;21.27;63.31;100152.81;10372035;28;928;-70
2023/08/23 10:41:27;;;;;;;;;;;21.70;75.50;;;21.28;63.19;100151.91;10372366;28;1976;-70
2023/08/23 10:46:22;;;;;;;;;;;21.80;75.50;;;21.28;63.33;100149.25;10371772;28;889;-69
2023/08/23 10:51:17;;;;;;;;;;;21.70;75.50;;;21.25;63.34;100144.09;10371561;28;795;-70
2023/08/23 10:56:13;;;;;;;;;;;21.70;75.60;;;21.26;63.40;100137.00;10371328;28;846;-69
2023/08/23 11:01:08;;;;;;;;;;;21.70;75.60;;;21.21;63.40;100139.88;10371048;28;1909;-70
2023/08/23 11:06:04;;;;;;;;;;;21.70;75.60;;;21.19;63.60;100142.59;10370926;28;767;-70
2023/08/23 11:10:59;;;;;;;;;;;21.70;75.70;;;21.21;63.64;100137.25;10370927;28;807;-69
2023/08/23 11:15:55;;;;;;;;;;;21.70;75.70;;;21.27;63.52;100130.75;10369937;28;890;-69
2023/08/23 11:20:50;;;;;;;;;;;21.70;75.60;;;21.27;63.28;100130.75;10370822;28;1910;-69
2023/08/23 11:25:45;;;;;;;;;;;21.70;75.60;;;21.30;63.26;100138.53;10371037;28;775;-69
2023/08/23 11:30:41;;;;;;;;;;;21.70;75.60;;;21.31;63.19;100142.94;10370395;28;1327;-69
2023/08/23 11:35:36;;;;;;;;;;;21.70;75.60;;;21.30;63.19;100135.91;10369229;28;938;-69
2023/08/23 11:40:32;;;;;;;;;;;21.80;75.60;;;21.26;63.35;100131.72;10368906;28;1913;-69
2023/08/23 11:45:27;;;;;;;;;;;21.70;75.50;;;21.28;63.48;100132.50;10370013;28;889;-69
2023/08/23 11:50:22;;;;;;;;;;;21.70;75.60;;;21.31;63.27;100134.97;10368153;28;819;-69
2023/08/23 11:55:18;;;;;;;;;;;21.80;75.60;;;21.32;63.27;100137.53;10368916;28;856;-69
2023/08/23 12:00:13;;;;;;;;;;;21.80;75.60;;;21.27;63.44;100121.00;10369339;28;1902;-69
2023/08/23 12:05:11;;;;;;;;;;;21.70;75.30;;;21.29;63.12;100132.38;10369239;28;898;-69
2023/08/23 12:10:09;;;;;;;;;;;21.70;75.40;;;21.30;63.30;100134.13;10368942;28;945;-69
2023/08/23 12:15:04;;;;;;;;;;;21.70;75.50;;;21.33;63.25;100128.66;10368825;28;831;-69
2023/08/23 12:20:00;;;;;;;;;;;21.70;75.30;;;21.32;63.02;100126.94;10368719;28;1910;-70
2023/08/23 12:24:55;;;;;;;;;;;21.70;75.40;;;21.33;63.06;100126.00;10368267;28;998;-69
2023/08/23 12:29:51;;;;;;;;;;;21.80;75.40;;;21.34;63.02;100127.72;10368092;28;1144;-69
2023/08/23 12:34:46;;;;;;;;;;;21.80;75.30;;;21.35;63.08;100118.84;10368067;28;885;-69
2023/08/23 12:39:41;;;;;;;;;;;21.80;75.30;;;21.35;63.04;100113.53;10367373;28;1895;-69
2023/08/23 12:44:37;;;;;;;;;;;21.80;75.20;;;21.37;62.94;100106.31;10350271;28;779;-68
2023/08/23 12:49:32;;;;;;;;;;;21.80;75.20;;;21.38;63.07;100105.44;10367280;28;857;-69
2023/08/23 12:54:28;;;;;;;;;;;21.80;75.30;;;21.38;63.10;100094.00;10366734;28;782;-68
2023/08/23 12:59:23;;;;;;;;;;;21.80;75.30;;;21.40;63.00;100089.44;10366060;28;1905;-69
2023/08/23 13:04:19;;;;;;;;;;;21.80;75.20;;;21.40;62.87;100084.97;10366416;28;781;-69
2023/08/23 13:09:14;;;;;;;;;;;21.80;75.10;;;21.42;62.92;100082.25;10366124;28;966;-69
2023/08/23 13:14:09;;;;;;;;;;;21.90;75.00;;;21.44;62.65;100075.09;10366083;28;953;-69
2023/08/23 13:19:05;;;;;;;;;;;21.90;75.00;;;21.48;62.76;100067.81;10365994;28;1913;-69
2023/08/23 13:24:00;;;;;;;;;;;21.90;75.00;;;21.52;62.73;100066.72;10366686;28;818;-69
2023/08/23 13:28:56;;;;;;;;;;;21.90;75.00;;;21.54;62.45;100071.00;10365408;28;1465;-69
2023/08/23 13:33:51;;;;;;;;;;;21.90;75.60;;;21.58;62.58;100064.56;10366539;28;850;-69
2023/08/23 13:38:47;;;;;;;;;;;21.90;74.70;;;21.62;62.32;100059.97;10365833;28;1918;-68
2023/08/23 13:43:42;;;;;;;;;;;22.00;74.70;;;21.67;62.18;100055.28;10365580;28;831;-69
2023/08/23 13:48:37;;;;;;;;;;;22.00;74.70;;;21.69;62.06;100052.53;10365789;28;985;-69
2023/08/23 13:53:33;;;;;;;;;;;22.00;74.70;;;21.76;62.24;100053.91;10364858;28;831;-69
2023/08/23 13:58:29;;;;;;;;;;;22.00;74.40;;;21.80;61.96;100056.31;10365990;28;1913;-69
2023/08/23 14:03:24;;;;;;;;;;;22.10;74.40;;;21.64;62.35;100052.78;10365901;28;870;-70
2023/08/23 14:08:20;;;;;;;;;;;22.10;74.50;;;21.56;62.84;100049.69;10365315;28;959;-69
2023/08/23 14:13:15;;;;;;;;;;;22.00;74.60;;;21.54;62.73;100051.59;10371244;28;826;-69
2023/08/23 14:18:11;;;;;;;;;;;22.00;74.60;;;21.50;62.89;100042.91;10372228;28;1969;-69
2023/08/23 14:23:06;;;;;;;;;;;22.00;74.80;;;21.50;63.06;100032.31;10373367;28;917;-69
2023/08/23 14:28:01;;;;;;;;;;;22.00;74.80;;;21.51;62.81;100022.56;10372936;28;1290;-69
2023/08/23 14:32:57;;;;;;;;;;;22.00;74.90;;;21.51;63.06;100018.13;10372795;28;818;-69
2023/08/23 14:37:52;;;;;;;;;;;22.00;75.00;;;21.53;62.91;100023.34;10372649;28;1914;-69
2023/08/23 14:42:47;;;;;;;;;;;22.00;75.00;;;21.53;63.04;100026.84;10371365;28;838;-69
2023/08/23 14:47:43;;;;;;;;;;;22.00;75.00;;;21.55;62.98;100019.66;10372988;28;857;-69
2023/08/23 14:52:38;;;;;;;;;;;22.00;75.10;;;21.58;63.00;100014.19;10372186;28;788;-69
2023/08/23 14:57:34;;;;;;;;;;;22.10;75.30;;;21.60;63.09;100016.75;10371343;28;1913;-69
2023/08/23 15:02:29;;;;;;;;;;;22.10;75.30;;;21.59;63.10;100021.22;10370868;28;828;-69
2023/08/23 15:07:24;;;;;;;;;;;22.10;75.40;;;21.61;63.24;100011.38;10370234;28;815;-69
2023/08/23 15:12:20;;;;;;;;;;;22.10;75.30;;;21.62;63.17;100012.22;10371613;28;873;-69
2023/08/23 15:17:15;;;;;;;;;;;22.10;75.40;;;21.62;63.00;100012.22;10370542;28;1969;-69
2023/08/23 15:22:11;;;;;;;;;;;22.10;75.30;;;21.63;63.15;100020.09;10370806;28;801;-69
2023/08/23 15:27:06;;;;;;;;;;;22.10;75.40;;;21.62;63.10;100021.03;10370893;28;847;-69
2023/08/23 15:32:03;;;;;;;;;;;22.10;75.30;;;21.62;62.88;100017.53;10370794;28;1167;-69
2023/08/23 15:36:58;;;;;;;;;;;22.10;75.30;;;21.61;62.85;100019.34;10369619;28;1923;-69
2023/08/23 15:41:54;;;;;;;;;;;22.10;75.20;;;21.60;63.12;100014.09;10369544;28;931;-69
2023/08/23 15:46:50;;;;;;;;;;;22.10;75.20;;;21.60;62.94;100011.47;10369300;28;969;-69
2023/08/23 15:51:45;;;;;;;;;;;22.10;75.20;;;21.58;62.96;100011.53;10369179;28;839;-69
2023/08/23 15:56:41;;;;;;;;;;;22.10;75.10;;;21.61;62.98;100010.50;10369618;28;872;-69
2023/08/23 16:01:36;;;;;;;;;;;22.10;75.10;;;21.58;63.06;100003.56;10368757;28;1965;-69
2023/08/23 16:06:31;;;;;;;;;;;22.10;75.00;;;21.58;63.00;100006.22;10369507;28;881;-69
2023/08/23 16:11:27;;;;;;;;;;;22.10;75.10;;;21.58;63.16;100000.06;10368461;28;815;-69
2023/08/23 16:16:23;;;;;;;;;;;22.10;74.90;;;21.58;62.95;99994.75;10368216;28;956;-69
2023/08/23 16:21:18;;;;;;;;;;;22.10;75.00;;;21.56;63.11;99993.97;10368072;28;1902;-69
2023/08/23 16:26:14;;;;;;;;;;;22.10;74.90;;;21.57;62.90;99999.22;10368542;28;877;-69
2023/08/23 16:31:09;;;;;;;;;;;22.10;74.80;;;21.57;62.95;99991.25;10367148;28;1249;-69
2023/08/23 16:36:04;;;;;;;;;;;22.10;74.70;;;21.56;63.04;99992.22;10367564;28;779;-69
2023/08/23 16:41:00;;;;;;;;;;;22.10;74.70;;;21.58;63.01;100002.72;10367287;28;1914;-69
2023/08/23 16:45:55;;;;;;;;;;;22.10;74.70;;;21.58;62.97;100000.06;10367150;28;957;-69
2023/08/23 16:50:51;;;;;;;;;;;22.10;74.70;;;21.57;62.93;99987.75;10367093;28;823;-69
2023/08/23 16:55:46;;;;;;;;;;;22.10;74.70;;;21.57;62.84;99980.66;10366354;28;991;-69
2023/08/23 17:00:41;;;;;;;;;;;22.10;74.60;;;21.58;63.04;99992.97;10366679;28;1965;-69
2023/08/23 17:05:37;;;;;;;;;;;22.10;74.60;;;21.58;62.93;99990.31;10366794;28;897;-69
2023/08/23 17:10:32;;;;;;;;;;;22.10;74.60;;;21.58;63.03;99990.31;10365865;28;1216;-69
2023/08/23 17:15:28;;;;;;;;;;;22.10;74.60;;;21.58;63.04;99986.81;10366974;28;838;-69
2023/08/23 17:20:23;;;;;;;;;;;22.10;74.60;;;21.59;62.86;99989.38;10366422;28;1902;-69
2023/08/23 17:25:19;;;;;;;;;;;22.10;74.60;;;21.59;63.03;99983.22;10366229;28;810;-69
2023/08/23 17:30:14;;;;;;;;;;;22.10;74.60;;;21.59;63.07;99984.09;10366085;28;1108;-69
2023/08/23 17:35:10;;;;;;;;;;;22.10;74.50;;;21.59;62.88;99994.69;10366565;28;1682;-69
2023/08/23 17:40:05;;;;;;;;;;;22.10;74.50;;;21.60;62.95;99988.44;10365768;28;1910;-69
2023/08/23 17:45:01;;;;;;;;;;;22.10;74.40;;;21.61;62.96;99992.81;10366723;28;876;-69
2023/08/23 17:49:57;;;;;;;;;;;22.20;74.50;;;21.60;62.78;99996.38;10374792;28;873;-69
2023/08/23 17:54:52;;;;;;;;;;;22.20;74.40;;;21.60;62.88;99991.09;10373808;28;952;-69
2023/08/23 17:59:50;;;;;;;;;;;22.10;74.40;;;21.61;62.80;99992.81;10373599;28;1909;-69
2023/08/23 18:04:45;;;;;;;;;;;22.20;74.20;;;21.60;62.77;99988.44;10373496;28;1023;-69
2023/08/23 18:09:41;;;;;;;;;;;22.10;73.90;;;21.60;62.58;99991.09;10374525;28;845;-69
2023/08/23 18:14:36;;;;;;;;;;;22.20;73.90;;;21.61;62.53;99994.59;10373039;28;989;-69
2023/08/23 18:19:31;;;;;;;;;;;22.20;73.90;;;21.60;62.27;100000.84;10372844;28;1955;-68
2023/08/23 18:24:27;;;;;;;;;;;22.20;73.50;;;21.60;62.23;100007.00;10372884;28;951;-69
2023/08/23 18:29:22;;;;;;;;;;;22.20;73.50;;;21.60;62.04;100007.00;10372514;28;1140;-69
2023/08/23 18:34:18;;;;;;;;;;;22.20;73.50;;;21.60;62.17;100009.66;10372322;28;826;-69
2023/08/23 18:39:13;;;;;;;;;;;22.20;73.50;;;21.62;61.93;100012.22;10372245;28;1971;-69
2023/08/23 18:44:08;;;;;;;;;;;22.20;73.40;;;21.60;62.11;100009.66;10371515;28;765;-69
2023/08/23 18:49:04;;;;;;;;;;;22.20;73.30;;;21.59;62.04;100015.91;10372369;28;867;-69
2023/08/23 18:54:00;;;;;;;;;;;22.20;74.00;;;21.60;61.80;100014.97;10371582;28;862;-69
2023/08/23 18:59:00;;;;;;;;;;;22.20;73.00;;;21.61;61.70;100018.47;10370634;28;1905;-69
2023/08/23 19:03:55;;;;;;;;;;;22.20;72.90;;;21.60;61.76;100017.63;10371003;28;894;-69
2023/08/23 19:08:51;;;;;;;;;;;22.20;72.80;;;21.60;61.63;100022.91;10371600;28;850;-69
2023/08/23 19:13:46;;;;;;;;;;;22.20;73.30;;;21.60;61.65;100030.88;10370721;28;870;-69
2023/08/23 19:18:42;;;;;;;;;;;22.20;73.00;;;21.61;61.93;100034.38;10352805;28;1913;-69
2023/08/23 19:23:37;;;;;;;;;;;22.20;73.10;;;21.61;61.75;100023.75;10371043;28;785;-69
2023/08/23 19:28:33;;;;;;;;;;;22.20;73.00;;;21.61;61.85;100024.66;10369970;28;1225;-69
2023/08/23 19:33:29;;;;;;;;;;;22.20;73.00;;;21.63;61.64;100036.00;10370525;28;884;-70
2023/08/23 19:38:24;;;;;;;;;;;22.30;72.40;;;21.65;61.80;100038.59;10369832;28;1972;-70
2023/08/23 19:43:20;;;;;;;;;;;22.20;72.60;;;21.66;62.06;100042.94;10369549;28;950;-70
2023/08/23 19:48:16;;;;;;;;;;;22.20;72.80;;;21.67;62.02;100047.31;10370163;28;858;-70
2023/08/23 19:53:11;;;;;;;;;;;22.30;73.10;;;21.66;62.29;100040.28;10369177;28;822;-70
2023/08/23 19:58:07;;;;;;;;;;;22.30;73.20;;;21.68;62.15;100056.97;10370204;28;1918;-70
2023/08/23 20:03:03;;;;;;;;;;;22.30;73.30;;;21.68;62.11;100046.38;10369441;28;1728;-70
2023/08/23 20:08:00;;;;;;;;;;;22.30;73.40;;;21.69;62.10;100047.22;10367783;28;806;-70
2023/08/23 20:12:55;;;;;;;;;;;22.30;73.40;;;21.69;62.14;100045.41;10369028;28;853;-70
2023/08/23 20:17:51;;;;;;;;;;;22.30;73.50;;;21.70;62.25;100038.34;10368732;28;1905;-70
2023/08/23 20:22:46;;;;;;;;;;;22.30;73.50;;;21.70;62.45;100036.53;10368018;28;850;-70
2023/08/23 20:27:42;;;;;;;;;;;22.30;73.50;;;21.69;62.25;100021.53;10368346;28;1129;-70
2023/08/23 20:32:37;;;;;;;;;;;22.30;73.60;;;21.70;62.35;100031.22;10368546;28;898;-70
2023/08/23 20:37:33;;;;;;;;;;;22.30;73.60;;;21.70;62.40;100031.22;10368051;28;1918;-70
2023/08/23 20:42:28;;;;;;;;;;;22.30;73.60;;;21.70;62.43;100031.22;10367578;28;921;-70
2023/08/23 20:47:23;;;;;;;;;;;22.30;73.60;;;21.70;62.38;100028.59;10367897;28;865;-70
2023/08/23 20:52:19;;;;;;;;;;;22.40;73.70;;;21.71;62.31;100032.09;10367106;28;770;-70
2023/08/23 20:57:14;;;;;;;;;;;22.40;73.70;;;21.71;62.35;100034.75;10366340;28;1910;-70
2023/08/23 21:02:10;;;;;;;;;;;22.40;73.80;;;21.71;62.40;100021.47;10366755;28;870;-70
2023/08/23 21:07:06;;;;;;;;;;;22.40;73.80;;;21.71;62.40;100030.28;10367236;28;948;-70
2023/08/23 21:12:01;;;;;;;;;;;22.30;73.70;;;21.72;62.21;100031.13;10367131;28;788;-70
2023/08/23 21:16:56;;;;;;;;;;;22.30;73.70;;;21.71;62.32;100037.38;10348403;28;914;-70
2023/08/23 21:21:52;;;;;;;;;;;22.40;73.70;;;21.71;62.35;100022.31;10366040;28;1968;-70
2023/08/23 21:26:48;;;;;;;;;;;22.40;73.50;;;21.71;62.12;100018.81;10366231;28;862;-68
2023/08/23 21:31:43;;;;;;;;;;;22.40;73.50;;;21.72;62.21;100020.53;10365582;28;1432;-70
2023/08/23 21:36:39;;;;;;;;;;;22.40;73.50;;;21.72;62.06;100020.53;10366626;28;882;-68
2023/08/23 21:41:34;;;;;;;;;;;22.40;73.10;;;21.73;62.10;100017.78;10365789;28;1922;-69
2023/08/23 21:46:29;;;;;;;;;;;22.40;72.90;;;21.73;62.24;100014.28;10365867;28;977;-70
2023/08/23 21:51:25;;;;;;;;;;;22.40;73.00;;;21.73;62.21;100011.63;10366437;28;858;-70
2023/08/23 21:56:20;;;;;;;;;;;22.40;73.20;;;21.73;62.28;100004.53;10366499;28;874;-70
2023/08/23 22:01:15;;;;;;;;;;;22.40;74.00;;;21.73;62.11;100006.34;10365558;28;1910;-70
2023/08/23 22:06:11;;;;;;;;;;;22.40;73.20;;;21.73;62.22;100008.97;10364924;28;960;-70
2023/08/23 22:11:08;;;;;;;;;;;22.40;73.10;;;21.73;62.27;100006.34;10365489;28;906;-70
2023/08/23 22:16:05;;;;;;;;;;;22.40;73.20;;;21.73;62.36;100007.19;10365869;28;877;-70
2023/08/23 22:21:01;;;;;;;;;;;22.40;73.20;;;21.73;62.41;100006.34;10365076;28;1914;-70
2023/08/23 22:25:56;;;;;;;;;;;22.40;73.10;;;21.74;62.16;100005.38;10365050;28;898;-70
2023/08/23 22:30:52;;;;;;;;;;;22.40;73.20;;;21.73;62.43;100011.63;10365801;28;1160;-70